sensor_id;sensor_type;location;lat;lon;timestamp;P1;durP1;ratioP1;P2;durP2;ratioP2
51987;SDS011;38003;52.012;4.346;2022-09-09T00:01:00;6.70;;;4.13;;
51987;SDS011;38003;52.012;4.346;2022-09-09T00:03:38;8.77;;;4.03;;
51987;SDS011;38003;52.012;4.346;2022-09-09T00:06:09;6.93;;;4.10;;
51987;SDS011;38003;52.012;4.346;2022-09-09T00:08:45;9.53;;;4.23;;
51987;SDS011;38003;52.012;4.346;2022-09-09T00:11:21;8.23;;;4.43;;
51987;SDS011;38003;52.012;4.346;2022-09-09T00:13:57;7.93;;;4.63;;
51987;SDS011;38003;52.012;4.346;2022-09-09T00:16:30;5.57;;;4.07;;
51987;SDS011;38003;52.012;4.346;2022-09-09T00:19:06;8.53;;;4.83;;
51987;SDS011;38003;52.012;4.346;2022-09-09T00:21:43;6.10;;;4.23;;
51987;SDS011;38003;52.012;4.346;2022-09-09T00:24:22;6.27;;;4.43;;
51987;SDS011;38003;52.012;4.346;2022-09-09T00:26:55;7.70;;;4.73;;
51987;SDS011;38003;52.012;4.346;2022-09-09T00:29:28;8.73;;;4.77;;
51987;SDS011;38003;52.012;4.346;2022-09-09T00:32:09;6.33;;;4.83;;
51987;SDS011;38003;52.012;4.346;2022-09-09T00:34:42;9.40;;;5.40;;
51987;SDS011;38003;52.012;4.346;2022-09-09T00:37:13;7.50;;;5.27;;
51987;SDS011;38003;52.012;4.346;2022-09-09T00:39:43;7.45;;;5.13;;
51987;SDS011;38003;52.012;4.346;2022-09-09T00:42:15;9.27;;;5.50;;
51987;SDS011;38003;52.012;4.346;2022-09-09T00:44:49;8.10;;;5.77;;
51987;SDS011;38003;52.012;4.346;2022-09-09T00:47:26;9.67;;;5.10;;
51987;SDS011;38003;52.012;4.346;2022-09-09T00:50:15;9.73;;;5.60;;
51987;SDS011;38003;52.012;4.346;2022-09-09T00:52:57;8.40;;;5.03;;
51987;SDS011;38003;52.012;4.346;2022-09-09T00:55:33;8.18;;;5.25;;
51987;SDS011;38003;52.012;4.346;2022-09-09T00:58:10;7.03;;;5.22;;
51987;SDS011;38003;52.012;4.346;2022-09-09T01:00:40;8.20;;;5.60;;
51987;SDS011;38003;52.012;4.346;2022-09-09T01:03:17;8.77;;;5.50;;
51987;SDS011;38003;52.012;4.346;2022-09-09T01:05:53;6.83;;;5.30;;
51987;SDS011;38003;52.012;4.346;2022-09-09T01:08:43;9.17;;;5.00;;
51987;SDS011;38003;52.012;4.346;2022-09-09T01:11:21;7.83;;;4.77;;
51987;SDS011;38003;52.012;4.346;2022-09-09T01:13:53;6.13;;;3.90;;
51987;SDS011;38003;52.012;4.346;2022-09-09T01:16:26;8.53;;;4.77;;
51987;SDS011;38003;52.012;4.346;2022-09-09T01:18:57;4.53;;;3.50;;
51987;SDS011;38003;52.012;4.346;2022-09-09T01:21:30;7.80;;;3.70;;
51987;SDS011;38003;52.012;4.346;2022-09-09T01:26:56;6.07;;;3.57;;
51987;SDS011;38003;52.012;4.346;2022-09-09T01:29:26;7.75;;;3.70;;
51987;SDS011;38003;52.012;4.346;2022-09-09T01:31:54;9.20;;;3.60;;
51987;SDS011;38003;52.012;4.346;2022-09-09T01:34:24;7.77;;;3.60;;
51987;SDS011;38003;52.012;4.346;2022-09-09T01:36:56;6.47;;;3.53;;
51987;SDS011;38003;52.012;4.346;2022-09-09T01:39:27;4.27;;;3.13;;
51987;SDS011;38003;52.012;4.346;2022-09-09T01:41:56;7.17;;;3.57;;
51987;SDS011;38003;52.012;4.346;2022-09-09T01:44:24;6.80;;;3.40;;
51987;SDS011;38003;52.012;4.346;2022-09-09T01:46:53;8.57;;;2.90;;
51987;SDS011;38003;52.012;4.346;2022-09-09T01:49:21;7.10;;;3.03;;
51987;SDS011;38003;52.012;4.346;2022-09-09T01:51:50;7.37;;;2.87;;
51987;SDS011;38003;52.012;4.346;2022-09-09T01:54:21;5.03;;;2.97;;
51987;SDS011;38003;52.012;4.346;2022-09-09T01:56:54;6.80;;;2.70;;
51987;SDS011;38003;52.012;4.346;2022-09-09T01:59:37;5.97;;;2.43;;
51987;SDS011;38003;52.012;4.346;2022-09-09T02:02:17;5.93;;;2.20;;
51987;SDS011;38003;52.012;4.346;2022-09-09T02:04:48;4.83;;;1.87;;
51987;SDS011;38003;52.012;4.346;2022-09-09T02:07:21;5.73;;;1.70;;
51987;SDS011;38003;52.012;4.346;2022-09-09T02:09:59;4.83;;;1.70;;
51987;SDS011;38003;52.012;4.346;2022-09-09T02:12:34;5.50;;;1.60;;
51987;SDS011;38003;52.012;4.346;2022-09-09T02:15:05;3.70;;;1.70;;
51987;SDS011;38003;52.012;4.346;2022-09-09T02:17:39;4.40;;;1.70;;
51987;SDS011;38003;52.012;4.346;2022-09-09T02:20:09;3.80;;;1.90;;
51987;SDS011;38003;52.012;4.346;2022-09-09T02:22:41;2.90;;;1.47;;
51987;SDS011;38003;52.012;4.346;2022-09-09T02:25:12;5.93;;;1.70;;
51987;SDS011;38003;52.012;4.346;2022-09-09T02:27:44;8.23;;;2.00;;
51987;SDS011;38003;52.012;4.346;2022-09-09T02:30:14;3.60;;;1.60;;
51987;SDS011;38003;52.012;4.346;2022-09-09T02:32:42;2.60;;;1.50;;
51987;SDS011;38003;52.012;4.346;2022-09-09T02:35:13;3.63;;;1.67;;
51987;SDS011;38003;52.012;4.346;2022-09-09T02:37:42;4.70;;;1.70;;
51987;SDS011;38003;52.012;4.346;2022-09-09T02:40:13;3.77;;;1.70;;
51987;SDS011;38003;52.012;4.346;2022-09-09T02:42:43;3.97;;;2.00;;
51987;SDS011;38003;52.012;4.346;2022-09-09T02:45:13;4.40;;;1.90;;
51987;SDS011;38003;52.012;4.346;2022-09-09T02:47:44;6.47;;;1.93;;
51987;SDS011;38003;52.012;4.346;2022-09-09T02:50:22;4.90;;;1.63;;
51987;SDS011;38003;52.012;4.346;2022-09-09T02:52:55;4.40;;;1.80;;
51987;SDS011;38003;52.012;4.346;2022-09-09T02:55:37;5.03;;;1.50;;
51987;SDS011;38003;52.012;4.346;2022-09-09T02:58:10;7.47;;;2.53;;
51987;SDS011;38003;52.012;4.346;2022-09-09T03:00:43;5.03;;;1.50;;
51987;SDS011;38003;52.012;4.346;2022-09-09T03:03:12;5.40;;;1.40;;
51987;SDS011;38003;52.012;4.346;2022-09-09T03:05:42;4.63;;;1.50;;
51987;SDS011;38003;52.012;4.346;2022-09-09T03:08:10;2.93;;;1.37;;
51987;SDS011;38003;52.012;4.346;2022-09-09T03:10:39;4.50;;;1.53;;
51987;SDS011;38003;52.012;4.346;2022-09-09T03:13:07;4.27;;;1.70;;
51987;SDS011;38003;52.012;4.346;2022-09-09T03:15:36;5.43;;;1.50;;
51987;SDS011;38003;52.012;4.346;2022-09-09T03:18:04;3.83;;;1.50;;
51987;SDS011;38003;52.012;4.346;2022-09-09T03:20:32;5.20;;;1.77;;
51987;SDS011;38003;52.012;4.346;2022-09-09T03:23:00;8.20;;;1.70;;
51987;SDS011;38003;52.012;4.346;2022-09-09T03:25:28;7.17;;;1.70;;
51987;SDS011;38003;52.012;4.346;2022-09-09T03:27:56;5.20;;;1.60;;
51987;SDS011;38003;52.012;4.346;2022-09-09T03:30:24;5.00;;;1.57;;
51987;SDS011;38003;52.012;4.346;2022-09-09T03:32:55;4.60;;;1.80;;
51987;SDS011;38003;52.012;4.346;2022-09-09T03:35:23;4.03;;;1.77;;
51987;SDS011;38003;52.012;4.346;2022-09-09T03:37:51;4.53;;;1.50;;
51987;SDS011;38003;52.012;4.346;2022-09-09T03:40:19;4.50;;;1.80;;
51987;SDS011;38003;52.012;4.346;2022-09-09T03:42:46;5.47;;;1.73;;
51987;SDS011;38003;52.012;4.346;2022-09-09T03:45:14;5.57;;;1.30;;
51987;SDS011;38003;52.012;4.346;2022-09-09T03:47:43;4.73;;;1.80;;
51987;SDS011;38003;52.012;4.346;2022-09-09T03:50:12;5.80;;;1.77;;
51987;SDS011;38003;52.012;4.346;2022-09-09T03:52:40;7.67;;;1.40;;
51987;SDS011;38003;52.012;4.346;2022-09-09T03:55:08;6.03;;;1.90;;
51987;SDS011;38003;52.012;4.346;2022-09-09T03:57:36;4.40;;;1.60;;
51987;SDS011;38003;52.012;4.346;2022-09-09T04:00:04;5.77;;;1.50;;
51987;SDS011;38003;52.012;4.346;2022-09-09T04:02:34;6.60;;;2.00;;
51987;SDS011;38003;52.012;4.346;2022-09-09T04:05:02;4.20;;;1.50;;
51987;SDS011;38003;52.012;4.346;2022-09-09T04:07:31;3.80;;;1.40;;
51987;SDS011;38003;52.012;4.346;2022-09-09T04:09:59;5.00;;;2.10;;
51987;SDS011;38003;52.012;4.346;2022-09-09T04:12:27;5.60;;;1.60;;
51987;SDS011;38003;52.012;4.346;2022-09-09T04:14:55;6.10;;;1.80;;
51987;SDS011;38003;52.012;4.346;2022-09-09T04:17:23;5.67;;;2.20;;
51987;SDS011;38003;52.012;4.346;2022-09-09T04:19:51;6.00;;;1.80;;
51987;SDS011;38003;52.012;4.346;2022-09-09T04:22:18;6.23;;;1.87;;
51987;SDS011;38003;52.012;4.346;2022-09-09T04:24:49;7.10;;;1.90;;
51987;SDS011;38003;52.012;4.346;2022-09-09T04:27:17;6.40;;;1.93;;
51987;SDS011;38003;52.012;4.346;2022-09-09T04:29:45;6.97;;;1.77;;
51987;SDS011;38003;52.012;4.346;2022-09-09T04:32:13;5.50;;;1.93;;
51987;SDS011;38003;52.012;4.346;2022-09-09T04:34:41;7.27;;;1.77;;
51987;SDS011;38003;52.012;4.346;2022-09-09T04:37:08;7.90;;;2.20;;
51987;SDS011;38003;52.012;4.346;2022-09-09T04:39:36;6.13;;;1.80;;
51987;SDS011;38003;52.012;4.346;2022-09-09T04:42:06;3.87;;;1.63;;
51987;SDS011;38003;52.012;4.346;2022-09-09T04:44:33;4.50;;;1.80;;
51987;SDS011;38003;52.012;4.346;2022-09-09T04:47:02;5.37;;;2.00;;
51987;SDS011;38003;52.012;4.346;2022-09-09T04:49:30;7.80;;;1.97;;
51987;SDS011;38003;52.012;4.346;2022-09-09T04:51:58;5.67;;;1.90;;
51987;SDS011;38003;52.012;4.346;2022-09-09T04:54:26;6.17;;;1.90;;
51987;SDS011;38003;52.012;4.346;2022-09-09T04:56:54;8.20;;;2.40;;
51987;SDS011;38003;52.012;4.346;2022-09-09T04:59:23;8.17;;;2.33;;
51987;SDS011;38003;52.012;4.346;2022-09-09T05:01:51;9.10;;;2.37;;
51987;SDS011;38003;52.012;4.346;2022-09-09T05:04:21;4.63;;;2.17;;
51987;SDS011;38003;52.012;4.346;2022-09-09T05:06:49;5.30;;;2.00;;
51987;SDS011;38003;52.012;4.346;2022-09-09T05:09:17;6.20;;;2.20;;
51987;SDS011;38003;52.012;4.346;2022-09-09T05:11:44;6.70;;;2.27;;
51987;SDS011;38003;52.012;4.346;2022-09-09T05:14:12;8.07;;;2.37;;
51987;SDS011;38003;52.012;4.346;2022-09-09T05:16:42;8.37;;;2.47;;
51987;SDS011;38003;52.012;4.346;2022-09-09T05:19:11;6.47;;;2.57;;
51987;SDS011;38003;52.012;4.346;2022-09-09T05:21:39;6.30;;;2.23;;
51987;SDS011;38003;52.012;4.346;2022-09-09T05:24:07;7.37;;;2.43;;
51987;SDS011;38003;52.012;4.346;2022-09-09T05:26:35;7.83;;;2.70;;
51987;SDS011;38003;52.012;4.346;2022-09-09T05:29:03;6.53;;;2.80;;
51987;SDS011;38003;52.012;4.346;2022-09-09T05:31:32;7.53;;;2.80;;
51987;SDS011;38003;52.012;4.346;2022-09-09T05:34:01;6.70;;;2.37;;
51987;SDS011;38003;52.012;4.346;2022-09-09T05:36:29;7.03;;;2.70;;
51987;SDS011;38003;52.012;4.346;2022-09-09T05:38:57;10.97;;;3.67;;
51987;SDS011;38003;52.012;4.346;2022-09-09T05:41:25;7.50;;;2.80;;
51987;SDS011;38003;52.012;4.346;2022-09-09T05:43:53;6.83;;;2.50;;
51987;SDS011;38003;52.012;4.346;2022-09-09T05:46:21;7.07;;;2.43;;
51987;SDS011;38003;52.012;4.346;2022-09-09T05:48:51;12.03;;;2.60;;
51987;SDS011;38003;52.012;4.346;2022-09-09T05:51:22;6.27;;;2.30;;
51987;SDS011;38003;52.012;4.346;2022-09-09T05:53:51;7.67;;;2.50;;
51987;SDS011;38003;52.012;4.346;2022-09-09T05:56:21;7.23;;;2.67;;
51987;SDS011;38003;52.012;4.346;2022-09-09T05:58:51;11.47;;;2.60;;
51987;SDS011;38003;52.012;4.346;2022-09-09T06:01:20;7.67;;;2.60;;
51987;SDS011;38003;52.012;4.346;2022-09-09T06:03:50;7.43;;;2.30;;
51987;SDS011;38003;52.012;4.346;2022-09-09T06:06:19;7.40;;;2.40;;
51987;SDS011;38003;52.012;4.346;2022-09-09T06:08:50;8.93;;;2.60;;
51987;SDS011;38003;52.012;4.346;2022-09-09T06:11:20;9.53;;;2.80;;
51987;SDS011;38003;52.012;4.346;2022-09-09T06:13:49;9.80;;;2.63;;
51987;SDS011;38003;52.012;4.346;2022-09-09T06:16:20;6.87;;;2.73;;
51987;SDS011;38003;52.012;4.346;2022-09-09T06:18:50;9.43;;;2.47;;
51987;SDS011;38003;52.012;4.346;2022-09-09T06:21:22;10.10;;;2.93;;
51987;SDS011;38003;52.012;4.346;2022-09-09T06:23:51;6.63;;;2.90;;
51987;SDS011;38003;52.012;4.346;2022-09-09T06:26:26;10.30;;;3.43;;
51987;SDS011;38003;52.012;4.346;2022-09-09T06:28:54;7.00;;;2.83;;
51987;SDS011;38003;52.012;4.346;2022-09-09T06:31:25;9.27;;;3.00;;
51987;SDS011;38003;52.012;4.346;2022-09-09T06:33:57;9.80;;;3.30;;
51987;SDS011;38003;52.012;4.346;2022-09-09T06:36:27;6.83;;;3.27;;
51987;SDS011;38003;52.012;4.346;2022-09-09T06:38:57;8.83;;;3.50;;
51987;SDS011;38003;52.012;4.346;2022-09-09T06:41:25;8.50;;;3.60;;
51987;SDS011;38003;52.012;4.346;2022-09-09T06:43:54;6.00;;;3.10;;
51987;SDS011;38003;52.012;4.346;2022-09-09T06:46:22;9.90;;;3.83;;
51987;SDS011;38003;52.012;4.346;2022-09-09T06:48:54;6.57;;;3.27;;
51987;SDS011;38003;52.012;4.346;2022-09-09T06:51:27;6.57;;;3.30;;
51987;SDS011;38003;52.012;4.346;2022-09-09T06:53:57;8.17;;;3.13;;
51987;SDS011;38003;52.012;4.346;2022-09-09T06:56:26;7.53;;;3.50;;
51987;SDS011;38003;52.012;4.346;2022-09-09T06:58:55;9.60;;;3.90;;
51987;SDS011;38003;52.012;4.346;2022-09-09T07:01:26;6.70;;;3.20;;
51987;SDS011;38003;52.012;4.346;2022-09-09T07:03:57;11.00;;;3.70;;
51987;SDS011;38003;52.012;4.346;2022-09-09T07:06:27;10.17;;;3.77;;
51987;SDS011;38003;52.012;4.346;2022-09-09T07:08:56;6.93;;;3.83;;
51987;SDS011;38003;52.012;4.346;2022-09-09T07:11:26;9.10;;;3.77;;
51987;SDS011;38003;52.012;4.346;2022-09-09T07:13:56;9.93;;;3.63;;
51987;SDS011;38003;52.012;4.346;2022-09-09T07:16:26;8.43;;;3.30;;
51987;SDS011;38003;52.012;4.346;2022-09-09T07:18:55;7.17;;;3.40;;
51987;SDS011;38003;52.012;4.346;2022-09-09T07:21:24;8.53;;;3.33;;
51987;SDS011;38003;52.012;4.346;2022-09-09T07:23:54;10.33;;;3.90;;
51987;SDS011;38003;52.012;4.346;2022-09-09T07:26:23;8.30;;;3.50;;
51987;SDS011;38003;52.012;4.346;2022-09-09T07:28:52;8.50;;;3.80;;
51987;SDS011;38003;52.012;4.346;2022-09-09T07:31:22;9.37;;;3.60;;
51987;SDS011;38003;52.012;4.346;2022-09-09T07:33:52;11.33;;;3.80;;
51987;SDS011;38003;52.012;4.346;2022-09-09T07:36:21;7.77;;;3.77;;
51987;SDS011;38003;52.012;4.346;2022-09-09T07:39:00;8.53;;;3.80;;
51987;SDS011;38003;52.012;4.346;2022-09-09T07:41:30;7.63;;;3.30;;
51987;SDS011;38003;52.012;4.346;2022-09-09T07:44:03;10.47;;;3.80;;
51987;SDS011;38003;52.012;4.346;2022-09-09T07:46:32;6.93;;;3.30;;
51987;SDS011;38003;52.012;4.346;2022-09-09T07:49:01;7.83;;;3.90;;
51987;SDS011;38003;52.012;4.346;2022-09-09T07:51:29;8.30;;;3.27;;
51987;SDS011;38003;52.012;4.346;2022-09-09T07:54:00;9.27;;;3.73;;
51987;SDS011;38003;52.012;4.346;2022-09-09T07:56:30;7.77;;;3.30;;
51987;SDS011;38003;52.012;4.346;2022-09-09T07:58:59;8.80;;;3.33;;
51987;SDS011;38003;52.012;4.346;2022-09-09T08:01:27;8.57;;;3.10;;
51987;SDS011;38003;52.012;4.346;2022-09-09T08:03:58;12.03;;;3.30;;
51987;SDS011;38003;52.012;4.346;2022-09-09T08:06:27;7.70;;;2.83;;
51987;SDS011;38003;52.012;4.346;2022-09-09T08:08:56;8.67;;;2.90;;
51987;SDS011;38003;52.012;4.346;2022-09-09T08:11:26;11.10;;;2.60;;
51987;SDS011;38003;52.012;4.346;2022-09-09T08:13:59;7.67;;;3.33;;
51987;SDS011;38003;52.012;4.346;2022-09-09T08:16:28;13.37;;;3.63;;
51987;SDS011;38003;52.012;4.346;2022-09-09T08:18:58;9.60;;;2.73;;
51987;SDS011;38003;52.012;4.346;2022-09-09T08:21:27;7.97;;;2.93;;
51987;SDS011;38003;52.012;4.346;2022-09-09T08:23:57;7.77;;;2.80;;
51987;SDS011;38003;52.012;4.346;2022-09-09T08:26:28;7.97;;;2.43;;
51987;SDS011;38003;52.012;4.346;2022-09-09T08:28:57;7.87;;;3.13;;
51987;SDS011;38003;52.012;4.346;2022-09-09T08:31:27;5.50;;;2.90;;
51987;SDS011;38003;52.012;4.346;2022-09-09T08:33:57;8.83;;;2.77;;
51987;SDS011;38003;52.012;4.346;2022-09-09T08:36:27;9.80;;;2.90;;
51987;SDS011;38003;52.012;4.346;2022-09-09T08:38:56;7.13;;;2.93;;
51987;SDS011;38003;52.012;4.346;2022-09-09T08:41:30;11.70;;;3.10;;
51987;SDS011;38003;52.012;4.346;2022-09-09T08:44:07;7.07;;;2.60;;
51987;SDS011;38003;52.012;4.346;2022-09-09T08:46:43;7.60;;;2.53;;
51987;SDS011;38003;52.012;4.346;2022-09-09T08:49:20;7.67;;;2.60;;
51987;SDS011;38003;52.012;4.346;2022-09-09T08:51:57;8.07;;;3.40;;
51987;SDS011;38003;52.012;4.346;2022-09-09T08:54:26;8.10;;;2.70;;
51987;SDS011;38003;52.012;4.346;2022-09-09T08:57:20;8.73;;;2.50;;
51987;SDS011;38003;52.012;4.346;2022-09-09T08:59:52;8.57;;;2.83;;
51987;SDS011;38003;52.012;4.346;2022-09-09T09:02:24;7.50;;;2.80;;
51987;SDS011;38003;52.012;4.346;2022-09-09T09:05:00;10.70;;;2.70;;
51987;SDS011;38003;52.012;4.346;2022-09-09T09:07:39;8.60;;;2.80;;
51987;SDS011;38003;52.012;4.346;2022-09-09T09:10:21;6.07;;;2.60;;
51987;SDS011;38003;52.012;4.346;2022-09-09T09:13:10;7.97;;;2.33;;
51987;SDS011;38003;52.012;4.346;2022-09-09T09:15:42;7.57;;;2.77;;
51987;SDS011;38003;52.012;4.346;2022-09-09T09:18:12;6.47;;;2.57;;
51987;SDS011;38003;52.012;4.346;2022-09-09T09:20:44;7.40;;;2.53;;
51987;SDS011;38003;52.012;4.346;2022-09-09T09:23:21;9.57;;;2.73;;
51987;SDS011;38003;52.012;4.346;2022-09-09T09:25:51;5.17;;;2.33;;
51987;SDS011;38003;52.012;4.346;2022-09-09T09:28:25;6.30;;;2.53;;
51987;SDS011;38003;52.012;4.346;2022-09-09T09:30:57;6.43;;;2.60;;
51987;SDS011;38003;52.012;4.346;2022-09-09T09:33:29;8.33;;;2.73;;
51987;SDS011;38003;52.012;4.346;2022-09-09T09:36:01;6.03;;;2.73;;
51987;SDS011;38003;52.012;4.346;2022-09-09T09:38:34;7.37;;;2.63;;
51987;SDS011;38003;52.012;4.346;2022-09-09T09:41:30;6.77;;;2.43;;
51987;SDS011;38003;52.012;4.346;2022-09-09T09:44:01;7.53;;;3.00;;
51987;SDS011;38003;52.012;4.346;2022-09-09T09:46:30;8.43;;;2.83;;
51987;SDS011;38003;52.012;4.346;2022-09-09T09:48:59;9.33;;;3.50;;
51987;SDS011;38003;52.012;4.346;2022-09-09T09:51:28;6.20;;;2.83;;
51987;SDS011;38003;52.012;4.346;2022-09-09T09:54:03;6.73;;;3.17;;
51987;SDS011;38003;52.012;4.346;2022-09-09T09:56:36;5.17;;;2.77;;
51987;SDS011;38003;52.012;4.346;2022-09-09T09:59:18;8.93;;;2.97;;
51987;SDS011;38003;52.012;4.346;2022-09-09T10:02:05;6.33;;;2.63;;
51987;SDS011;38003;52.012;4.346;2022-09-09T10:04:40;6.47;;;2.87;;
51987;SDS011;38003;52.012;4.346;2022-09-09T10:07:11;4.90;;;2.77;;
51987;SDS011;38003;52.012;4.346;2022-09-09T10:09:40;8.27;;;2.97;;
51987;SDS011;38003;52.012;4.346;2022-09-09T10:12:11;6.87;;;2.53;;
51987;SDS011;38003;52.012;4.346;2022-09-09T10:14:48;5.70;;;2.57;;
51987;SDS011;38003;52.012;4.346;2022-09-09T10:17:26;5.97;;;3.20;;
51987;SDS011;38003;52.012;4.346;2022-09-09T10:20:16;7.97;;;3.20;;
51987;SDS011;38003;52.012;4.346;2022-09-09T10:22:50;7.20;;;2.90;;
51987;SDS011;38003;52.012;4.346;2022-09-09T10:25:22;7.27;;;3.13;;
51987;SDS011;38003;52.012;4.346;2022-09-09T10:28:10;7.70;;;3.43;;
51987;SDS011;38003;52.012;4.346;2022-09-09T10:31:01;6.47;;;3.50;;
51987;SDS011;38003;52.012;4.346;2022-09-09T10:33:42;7.97;;;4.03;;
51987;SDS011;38003;52.012;4.346;2022-09-09T10:36:18;8.17;;;2.80;;
51987;SDS011;38003;52.012;4.346;2022-09-09T10:38:50;7.47;;;3.37;;
51987;SDS011;38003;52.012;4.346;2022-09-09T10:41:24;6.63;;;3.30;;
51987;SDS011;38003;52.012;4.346;2022-09-09T10:44:15;8.30;;;3.37;;
51987;SDS011;38003;52.012;4.346;2022-09-09T10:47:04;5.13;;;3.27;;
51987;SDS011;38003;52.012;4.346;2022-09-09T10:49:50;8.77;;;3.37;;
51987;SDS011;38003;52.012;4.346;2022-09-09T10:52:30;6.67;;;3.40;;
51987;SDS011;38003;52.012;4.346;2022-09-09T10:55:08;7.83;;;3.70;;
51987;SDS011;38003;52.012;4.346;2022-09-09T10:57:39;6.90;;;3.37;;
51987;SDS011;38003;52.012;4.346;2022-09-09T11:00:14;9.30;;;3.80;;
51987;SDS011;38003;52.012;4.346;2022-09-09T11:02:47;6.90;;;3.07;;
51987;SDS011;38003;52.012;4.346;2022-09-09T11:05:20;8.60;;;3.40;;
51987;SDS011;38003;52.012;4.346;2022-09-09T11:07:52;6.77;;;3.50;;
51987;SDS011;38003;52.012;4.346;2022-09-09T11:10:34;5.30;;;3.07;;
51987;SDS011;38003;52.012;4.346;2022-09-09T11:13:09;6.83;;;3.30;;
51987;SDS011;38003;52.012;4.346;2022-09-09T11:15:42;5.40;;;3.10;;
51987;SDS011;38003;52.012;4.346;2022-09-09T11:18:15;7.53;;;3.10;;
51987;SDS011;38003;52.012;4.346;2022-09-09T11:20:47;4.63;;;3.27;;
51987;SDS011;38003;52.012;4.346;2022-09-09T11:23:20;6.53;;;3.30;;
51987;SDS011;38003;52.012;4.346;2022-09-09T11:25:54;7.27;;;3.37;;
51987;SDS011;38003;52.012;4.346;2022-09-09T11:28:28;8.70;;;3.20;;
51987;SDS011;38003;52.012;4.346;2022-09-09T11:31:11;11.37;;;4.00;;
51987;SDS011;38003;52.012;4.346;2022-09-09T11:33:53;6.70;;;3.87;;
51987;SDS011;38003;52.012;4.346;2022-09-09T11:36:49;9.33;;;3.83;;
51987;SDS011;38003;52.012;4.346;2022-09-09T11:39:33;10.60;;;3.90;;
51987;SDS011;38003;52.012;4.346;2022-09-09T11:42:15;5.73;;;3.50;;
51987;SDS011;38003;52.012;4.346;2022-09-09T11:44:46;8.77;;;3.97;;
51987;SDS011;38003;52.012;4.346;2022-09-09T11:47:21;6.37;;;3.53;;
51987;SDS011;38003;52.012;4.346;2022-09-09T11:50:06;8.63;;;4.10;;
51987;SDS011;38003;52.012;4.346;2022-09-09T11:52:36;5.83;;;3.57;;
51987;SDS011;38003;52.012;4.346;2022-09-09T11:55:08;5.33;;;3.07;;
51987;SDS011;38003;52.012;4.346;2022-09-09T11:57:38;5.53;;;2.87;;
51987;SDS011;38003;52.012;4.346;2022-09-09T12:03:01;5.60;;;3.30;;
51987;SDS011;38003;52.012;4.346;2022-09-09T12:05:37;6.30;;;3.90;;
51987;SDS011;38003;52.012;4.346;2022-09-09T12:08:09;6.33;;;3.33;;
51987;SDS011;38003;52.012;4.346;2022-09-09T12:10:39;5.43;;;3.03;;
51987;SDS011;38003;52.012;4.346;2022-09-09T12:13:07;4.70;;;3.00;;
51987;SDS011;38003;52.012;4.346;2022-09-09T12:15:46;6.50;;;3.50;;
51987;SDS011;38003;52.012;4.346;2022-09-09T12:18:16;5.83;;;3.60;;
51987;SDS011;38003;52.012;4.346;2022-09-09T12:20:54;5.10;;;2.93;;
51987;SDS011;38003;52.012;4.346;2022-09-09T12:23:33;6.27;;;2.60;;
51987;SDS011;38003;52.012;4.346;2022-09-09T12:26:28;5.87;;;2.83;;
51987;SDS011;38003;52.012;4.346;2022-09-09T12:29:12;4.93;;;2.40;;
51987;SDS011;38003;52.012;4.346;2022-09-09T12:31:50;4.93;;;3.00;;
51987;SDS011;38003;52.012;4.346;2022-09-09T12:34:27;8.23;;;2.47;;
51987;SDS011;38003;52.012;4.346;2022-09-09T12:37:06;5.83;;;2.40;;
51987;SDS011;38003;52.012;4.346;2022-09-09T12:39:45;5.83;;;2.23;;
51987;SDS011;38003;52.012;4.346;2022-09-09T12:42:17;3.40;;;1.97;;
51987;SDS011;38003;52.012;4.346;2022-09-09T12:44:52;4.80;;;1.60;;
51987;SDS011;38003;52.012;4.346;2022-09-09T12:47:24;6.10;;;2.03;;
51987;SDS011;38003;52.012;4.346;2022-09-09T12:49:56;4.13;;;2.50;;
51987;SDS011;38003;52.012;4.346;2022-09-09T12:52:27;4.33;;;2.23;;
51987;SDS011;38003;52.012;4.346;2022-09-09T12:54:58;3.40;;;1.77;;
51987;SDS011;38003;52.012;4.346;2022-09-09T12:57:29;5.80;;;2.00;;
51987;SDS011;38003;52.012;4.346;2022-09-09T13:00:07;2.30;;;1.40;;
51987;SDS011;38003;52.012;4.346;2022-09-09T13:02:48;2.97;;;1.57;;
51987;SDS011;38003;52.012;4.346;2022-09-09T13:05:18;4.07;;;1.37;;
51987;SDS011;38003;52.012;4.346;2022-09-09T13:07:49;3.57;;;1.67;;
51987;SDS011;38003;52.012;4.346;2022-09-09T13:10:20;4.47;;;2.40;;
51987;SDS011;38003;52.012;4.346;2022-09-09T13:13:11;3.93;;;1.60;;
51987;SDS011;38003;52.012;4.346;2022-09-09T13:15:47;4.93;;;1.70;;
51987;SDS011;38003;52.012;4.346;2022-09-09T13:18:16;4.60;;;1.97;;
51987;SDS011;38003;52.012;4.346;2022-09-09T13:20:48;8.30;;;2.50;;
51987;SDS011;38003;52.012;4.346;2022-09-09T13:23:18;4.23;;;1.57;;
51987;SDS011;38003;52.012;4.346;2022-09-09T13:25:55;4.20;;;2.20;;
51987;SDS011;38003;52.012;4.346;2022-09-09T13:28:24;4.53;;;1.77;;
51987;SDS011;38003;52.012;4.346;2022-09-09T13:30:59;4.63;;;1.20;;
51987;SDS011;38003;52.012;4.346;2022-09-09T13:33:30;2.73;;;0.90;;
51987;SDS011;38003;52.012;4.346;2022-09-09T13:35:59;2.90;;;0.73;;
51987;SDS011;38003;52.012;4.346;2022-09-09T13:38:32;1.70;;;0.80;;
51987;SDS011;38003;52.012;4.346;2022-09-09T13:41:03;1.23;;;0.63;;
51987;SDS011;38003;52.012;4.346;2022-09-09T13:43:34;2.17;;;0.70;;
51987;SDS011;38003;52.012;4.346;2022-09-09T13:46:04;1.37;;;0.60;;
51987;SDS011;38003;52.012;4.346;2022-09-09T13:48:55;3.00;;;0.80;;
51987;SDS011;38003;52.012;4.346;2022-09-09T13:51:33;2.20;;;0.73;;
51987;SDS011;38003;52.012;4.346;2022-09-09T13:54:05;2.53;;;0.80;;
51987;SDS011;38003;52.012;4.346;2022-09-09T13:56:33;3.47;;;1.17;;
51987;SDS011;38003;52.012;4.346;2022-09-09T13:59:01;2.13;;;0.93;;
51987;SDS011;38003;52.012;4.346;2022-09-09T14:01:30;2.80;;;1.13;;
51987;SDS011;38003;52.012;4.346;2022-09-09T14:04:01;7.10;;;2.17;;
51987;SDS011;38003;52.012;4.346;2022-09-09T14:06:29;4.37;;;1.43;;
51987;SDS011;38003;52.012;4.346;2022-09-09T14:08:58;3.40;;;1.40;;
51987;SDS011;38003;52.012;4.346;2022-09-09T14:11:27;2.23;;;1.43;;
51987;SDS011;38003;52.012;4.346;2022-09-09T14:13:55;5.53;;;1.70;;
51987;SDS011;38003;52.012;4.346;2022-09-09T14:16:23;6.57;;;1.70;;
51987;SDS011;38003;52.012;4.346;2022-09-09T14:18:53;5.87;;;1.80;;
51987;SDS011;38003;52.012;4.346;2022-09-09T14:21:22;3.83;;;1.90;;
51987;SDS011;38003;52.012;4.346;2022-09-09T14:23:50;6.80;;;1.83;;
51987;SDS011;38003;52.012;4.346;2022-09-09T14:26:18;10.20;;;2.40;;
51987;SDS011;38003;52.012;4.346;2022-09-09T14:28:48;6.00;;;2.13;;
51987;SDS011;38003;52.012;4.346;2022-09-09T14:31:21;6.10;;;1.93;;
51987;SDS011;38003;52.012;4.346;2022-09-09T14:33:49;4.80;;;1.40;;
51987;SDS011;38003;52.012;4.346;2022-09-09T14:36:18;6.17;;;1.40;;
51987;SDS011;38003;52.012;4.346;2022-09-09T14:38:46;7.77;;;1.60;;
51987;SDS011;38003;52.012;4.346;2022-09-09T14:41:14;7.53;;;2.37;;
51987;SDS011;38003;52.012;4.346;2022-09-09T14:43:45;5.03;;;1.80;;
51987;SDS011;38003;52.012;4.346;2022-09-09T14:46:14;6.53;;;1.60;;
51987;SDS011;38003;52.012;4.346;2022-09-09T14:48:43;5.37;;;1.60;;
51987;SDS011;38003;52.012;4.346;2022-09-09T14:51:15;5.43;;;1.73;;
51987;SDS011;38003;52.012;4.346;2022-09-09T14:53:45;9.70;;;1.63;;
51987;SDS011;38003;52.012;4.346;2022-09-09T14:56:14;9.23;;;1.77;;
51987;SDS011;38003;52.012;4.346;2022-09-09T14:58:44;5.33;;;1.50;;
51987;SDS011;38003;52.012;4.346;2022-09-09T15:01:13;7.07;;;1.70;;
51987;SDS011;38003;52.012;4.346;2022-09-09T15:03:48;6.80;;;1.80;;
51987;SDS011;38003;52.012;4.346;2022-09-09T15:06:17;5.80;;;1.70;;
51987;SDS011;38003;52.012;4.346;2022-09-09T15:08:46;6.68;;;1.60;;
51987;SDS011;38003;52.012;4.346;2022-09-09T15:11:15;5.77;;;1.80;;
51987;SDS011;38003;52.012;4.346;2022-09-09T15:13:43;8.00;;;1.40;;
51987;SDS011;38003;52.012;4.346;2022-09-09T15:16:11;5.67;;;1.50;;
51987;SDS011;38003;52.012;4.346;2022-09-09T15:18:42;3.83;;;1.45;;
51987;SDS011;38003;52.012;4.346;2022-09-09T15:21:12;7.43;;;1.90;;
51987;SDS011;38003;52.012;4.346;2022-09-09T15:23:41;7.23;;;1.83;;